Time,TemperatureF,DewpointF,PressureIn,WindDirection,WindDirectionDegrees,WindSpeedMPH,WindSpeedGustMPH,Humidity,HourlyPrecipIn,Conditions,Clouds,dailyrainin,SolarRadiationWatts/m^2,SoftwareType,DateUTC
2013-11-09 00:00:00,37.0,27.1,30.23,West,280,4.0,6.0,67,0.00,,,0.04,0.00,VWS V14.01,2013-11-09 05:00:00,
2013-11-09 00:01:00,37.0,27.1,30.23,West,280,1.0,4.0,67,0.00,,,0.00,0.00,VWS V14.01,2013-11-09 05:01:00,
2013-11-09 00:06:00,36.9,27.0,30.23,West,280,0.0,4.0,67,0.00,,,0.00,0.00,VWS V14.01,2013-11-09 05:06:00,
2013-11-09 00:11:00,36.6,27.0,30.23,West,280,0.0,4.0,68,0.00,,,0.00,0.00,VWS V14.01,2013-11-09 05:11:00,
2013-11-09 00:15:00,36.5,27.3,30.24,West,280,0.0,4.0,69,0.00,,,0.00,0.00,VWS V14.01,2013-11-09 05:15:00,
2013-11-09 00:16:00,36.5,27.3,30.24,West,280,0.0,0.0,69,0.00,,,0.00,0.00,VWS V14.01,2013-11-09 05:16:00,
2013-11-09 00:21:00,36.3,27.1,30.24,West,280,0.0,0.0,69,0.00,,,0.00,0.00,VWS V14.01,2013-11-09 05:21:00,
2013-11-09 00:26:00,36.0,26.8,30.24,West,280,0.0,0.0,69,0.00,,,0.00,0.00,VWS V14.01,2013-11-09 05:26:00,
2013-11-09 00:30:00,35.8,27.0,30.24,West,280,0.0,4.0,70,0.00,,,0.00,0.00,VWS V14.01,2013-11-09 05:30:00,
2013-11-09 00:31:00,35.6,26.8,30.24,West,280,0.0,0.0,70,0.00,,,0.00,0.00,VWS V14.01,2013-11-09 05:31:00,
2013-11-09 00:36:00,35.5,27.0,30.24,West,276,5.0,5.0,71,0.00,,,0.00,0.00,VWS V14.01,2013-11-09 05:36:00,
2013-11-09 00:41:00,35.5,27.0,30.24,West,277,4.0,6.0,71,0.00,,,0.00,0.00,VWS V14.01,2013-11-09 05:41:00,
2013-11-09 00:45:00,35.3,26.5,30.24,WNW,301,0.0,6.0,70,0.00,,,0.00,0.00,VWS V14.01,2013-11-09 05:45:00,
2013-11-09 00:46:00,35.3,26.5,30.24,WNW,301,0.0,0.0,70,0.00,,,0.00,0.00,VWS V14.01,2013-11-09 05:46:00,
2013-11-09 00:51:00,35.2,27.1,30.24,WNW,301,0.0,0.0,72,0.00,,,0.00,0.00,VWS V14.01,2013-11-09 05:51:00,
2013-11-09 00:56:00,34.6,27.2,30.24,WNW,301,0.0,0.0,74,0.00,,,0.00,0.00,VWS V14.01,2013-11-09 05:56:00,
2013-11-09 01:00:00,34.3,27.2,30.24,WNW,301,0.0,0.0,75,0.00,,,0.00,0.00,VWS V14.01,2013-11-09 06:00:00,
2013-11-09 01:01:00,34.1,27.0,30.24,WNW,301,0.0,0.0,75,0.00,,,0.00,0.00,VWS V14.01,2013-11-09 06:01:00,
2013-11-09 01:06:00,33.8,26.7,30.24,WNW,301,0.0,0.0,75,0.00,,,0.00,0.00,VWS V14.01,2013-11-09 06:06:00,
2013-11-09 01:11:00,33.5,26.8,30.24,WNW,301,0.0,0.0,76,0.00,,,0.00,0.00,VWS V14.01,2013-11-09 06:11:00,
2013-11-09 01:15:00,33.4,26.7,30.24,WNW,301,0.0,0.0,76,0.00,,,0.00,0.00,VWS V14.01,2013-11-09 06:15:00,
2013-11-09 01:16:00,33.4,26.7,30.24,WNW,301,0.0,0.0,76,0.00,,,0.00,0.00,VWS V14.01,2013-11-09 06:16:00,
2013-11-09 01:21:00,33.1,26.4,30.24,WNW,301,0.0,0.0,76,0.00,,,0.00,0.00,VWS V14.01,2013-11-09 06:21:00,
2013-11-09 01:26:00,32.9,26.8,30.24,WNW,301,0.0,0.0,78,0.00,,,0.00,0.00,VWS V14.01,2013-11-09 06:26:00,
2013-11-09 01:30:00,32.8,26.7,30.25,WNW,301,0.0,0.0,78,0.00,,,0.00,0.00,VWS V14.01,2013-11-09 06:30:00,
2013-11-09 01:31:00,32.8,26.7,30.25,WNW,301,0.0,0.0,78,0.00,,,0.00,0.00,VWS V14.01,2013-11-09 06:31:00,
2013-11-09 01:36:00,32.7,26.6,30.25,WNW,301,0.0,0.0,78,0.00,,,0.00,0.00,VWS V14.01,2013-11-09 06:36:00,
2013-11-09 01:41:00,32.8,27.0,30.25,WNW,301,0.0,0.0,79,0.00,,,0.00,0.00,VWS V14.01,2013-11-09 06:41:00,
2013-11-09 01:45:00,32.8,27.0,30.26,WNW,301,0.0,0.0,79,0.00,,,0.00,0.00,VWS V14.01,2013-11-09 06:45:00,
2013-11-09 01:46:00,32.8,27.0,30.26,WNW,301,0.0,0.0,79,0.00,,,0.00,0.00,VWS V14.01,2013-11-09 06:46:00,
2013-11-09 01:51:00,32.8,26.7,30.26,WNW,301,0.0,0.0,78,0.00,,,0.00,0.00,VWS V14.01,2013-11-09 06:51:00,
2013-11-09 01:56:00,32.9,26.8,30.26,WNW,301,0.0,0.0,78,0.00,,,0.00,0.00,VWS V14.01,2013-11-09 06:56:00,
2013-11-09 02:00:00,32.9,26.8,30.25,WNW,301,0.0,0.0,78,0.00,,,0.00,0.00,VWS V14.01,2013-11-09 07:00:00,
2013-11-09 02:01:00,32.9,26.8,30.25,WNW,301,0.0,0.0,78,0.00,,,0.00,0.00,VWS V14.01,2013-11-09 07:01:00,
2013-11-09 02:06:00,33.1,27.0,30.25,WNW,301,0.0,0.0,78,0.00,,,0.00,0.00,VWS V14.01,2013-11-09 07:06:00,
2013-11-09 02:11:00,33.1,27.0,30.25,WNW,284,4.0,5.0,78,0.00,,,0.00,0.00,VWS V14.01,2013-11-09 07:11:00,
2013-11-09 02:15:00,33.4,27.0,30.25,West,277,1.0,5.0,77,0.00,,,0.00,0.00,VWS V14.01,2013-11-09 07:15:00,
2013-11-09 02:16:00,33.5,27.1,30.25,West,281,0.0,3.0,77,0.00,,,0.00,0.00,VWS V14.01,2013-11-09 07:16:00,
2013-11-09 02:21:00,33.8,27.0,30.25,West,279,0.0,4.0,76,0.00,,,0.00,0.00,VWS V14.01,2013-11-09 07:21:00,
2013-11-09 02:26:00,34.0,26.9,30.25,West,279,2.0,4.0,75,0.00,,,0.00,0.00,VWS V14.01,2013-11-09 07:26:00,
2013-11-09 02:30:00,34.1,27.0,30.26,West,279,0.0,4.0,75,0.00,,,0.00,0.00,VWS V14.01,2013-11-09 07:30:00,
2013-11-09 02:31:00,34.3,27.2,30.26,West,279,0.0,1.0,75,0.00,,,0.00,0.00,VWS V14.01,2013-11-09 07:31:00,
2013-11-09 02:36:00,34.4,27.0,30.26,West,279,0.0,1.0,74,0.00,,,0.00,0.00,VWS V14.01,2013-11-09 07:36:00,
2013-11-09 02:41:00,34.4,27.0,30.26,West,279,0.0,3.0,74,0.00,,,0.00,0.00,VWS V14.01,2013-11-09 07:41:00,
2013-11-09 02:45:00,34.6,26.9,30.26,West,279,0.0,3.0,73,0.00,,,0.00,0.00,VWS V14.01,2013-11-09 07:45:00,
2013-11-09 02:46:00,34.6,26.9,30.26,West,279,0.0,0.0,73,0.00,,,0.00,0.00,VWS V14.01,2013-11-09 07:46:00,
2013-11-09 02:51:00,34.4,26.7,30.26,West,279,0.0,0.0,73,0.00,,,0.00,0.00,VWS V14.01,2013-11-09 07:51:00,
2013-11-09 02:56:00,34.4,27.0,30.26,West,279,0.0,1.0,74,0.00,,,0.00,0.00,VWS V14.01,2013-11-09 07:56:00,
2013-11-09 03:00:00,34.4,27.0,30.26,West,279,0.0,1.0,74,0.00,,,0.00,0.00,VWS V14.01,2013-11-09 08:00:00,
2013-11-09 03:01:00,34.4,27.0,30.26,West,279,0.0,0.0,74,0.00,,,0.00,0.00,VWS V14.01,2013-11-09 08:01:00,
2013-11-09 03:06:00,34.4,27.3,30.26,West,279,0.0,0.0,75,0.00,,,0.00,0.00,VWS V14.01,2013-11-09 08:06:00,
2013-11-09 03:11:00,34.3,27.2,30.26,West,279,0.0,0.0,75,0.00,,,0.00,0.00,VWS V14.01,2013-11-09 08:11:00,
2013-11-09 03:15:00,34.1,27.3,30.26,West,279,0.0,0.0,76,0.00,,,0.00,0.00,VWS V14.01,2013-11-09 08:15:00,
2013-11-09 03:16:00,34.1,27.3,30.26,West,279,0.0,0.0,76,0.00,,,0.00,0.00,VWS V14.01,2013-11-09 08:16:00,
2013-11-09 03:21:00,34.0,27.2,30.26,West,279,0.0,0.0,76,0.00,,,0.00,0.00,VWS V14.01,2013-11-09 08:21:00,
2013-11-09 03:26:00,33.8,27.0,30.26,West,279,0.0,0.0,76,0.00,,,0.00,0.00,VWS V14.01,2013-11-09 08:26:00,
2013-11-09 03:30:00,33.7,27.0,30.26,West,279,0.0,0.0,76,0.00,,,0.00,0.00,VWS V14.01,2013-11-09 08:30:00,
2013-11-09 03:45:00,32.9,26.8,30.26,North,0,0.0,0.0,78,0.00,,,0.00,0.00,VWS V14.01,2013-11-09 08:45:00,
2013-11-09 04:00:00,31.8,26.4,30.26,North,0,0.0,0.0,80,0.00,,,0.00,0.00,VWS V14.01,2013-11-09 09:00:00,
2013-11-09 04:15:00,31.2,26.1,30.27,North,0,0.0,0.0,81,0.00,,,0.00,0.00,VWS V14.01,2013-11-09 09:15:00,
2013-11-09 04:30:00,30.1,25.6,30.27,North,0,0.0,0.0,83,0.00,,,0.00,0.00,VWS V14.01,2013-11-09 09:30:00,
2013-11-09 04:45:00,29.7,25.8,30.27,North,0,0.0,0.0,85,0.00,,,0.00,0.00,VWS V14.01,2013-11-09 09:45:00,
2013-11-09 05:00:00,29.4,25.7,30.28,North,0,0.0,0.0,86,0.00,,,0.00,0.00,VWS V14.01,2013-11-09 10:00:00,
2013-11-09 05:15:00,29.1,25.4,30.28,North,0,0.0,0.0,86,0.00,,,0.00,0.00,VWS V14.01,2013-11-09 10:15:00,
2013-11-09 05:30:00,28.8,25.4,30.28,North,0,0.0,0.0,87,0.00,,,0.00,0.00,VWS V14.01,2013-11-09 10:30:00,
2013-11-09 05:45:00,28.8,25.7,30.28,North,0,0.0,0.0,88,0.00,,,0.00,0.00,VWS V14.01,2013-11-09 10:45:00,
2013-11-09 06:00:00,28.8,25.7,30.28,North,0,0.0,0.0,88,0.00,,,0.00,0.00,VWS V14.01,2013-11-09 11:00:00,
2013-11-09 06:15:00,28.5,25.4,30.28,North,0,0.0,0.0,88,0.00,,,0.00,0.00,VWS V14.01,2013-11-09 11:15:00,
2013-11-09 06:30:00,28.4,25.6,30.28,North,0,0.0,0.0,89,0.00,,,0.00,0.00,VWS V14.01,2013-11-09 11:30:00,
2013-11-09 06:45:00,29.0,26.7,30.30,West,279,0.0,0.0,91,0.00,,,0.00,63.00,VWS V14.01,2013-11-09 11:45:00,
2013-11-09 06:51:00,28.4,25.6,30.28,North,0,0.0,0.0,89,0.00,,,0.00,0.00,VWS V14.01,2013-11-09 11:51:00,
2013-11-09 06:56:00,28.2,25.4,30.28,West,279,0.0,0.0,89,0.00,,,0.00,12.00,VWS V14.01,2013-11-09 11:56:00,
2013-11-09 07:00:00,29.7,27.4,30.29,West,279,0.0,0.0,91,0.00,,,0.00,79.00,VWS V14.01,2013-11-09 12:00:00,
2013-11-09 07:01:00,28.2,25.4,30.29,West,279,0.0,0.0,89,0.00,,,0.00,16.00,VWS V14.01,2013-11-09 12:01:00,
2013-11-09 07:06:00,28.2,25.4,30.29,West,279,0.0,0.0,89,0.00,,,0.00,16.00,VWS V14.01,2013-11-09 12:06:00,
2013-11-09 07:11:00,28.2,25.4,30.29,West,279,0.0,0.0,89,0.00,,,0.00,18.00,VWS V14.01,2013-11-09 12:11:00,
2013-11-09 07:15:00,32.9,29.2,30.29,West,279,0.0,0.0,86,0.00,,,0.00,169.00,VWS V14.01,2013-11-09 12:15:00,
2013-11-09 07:16:00,28.2,25.4,30.29,West,279,0.0,0.0,89,0.00,,,0.00,19.00,VWS V14.01,2013-11-09 12:16:00,
2013-11-09 07:21:00,28.2,25.6,30.29,West,279,0.0,1.0,90,0.00,,,0.00,25.00,VWS V14.01,2013-11-09 12:21:00,
2013-11-09 07:26:00,28.4,25.9,30.29,West,279,0.0,1.0,90,0.00,,,0.00,30.00,VWS V14.01,2013-11-09 12:26:00,
2013-11-09 07:30:00,36.0,28.9,30.29,West,279,0.0,0.0,75,0.00,,,0.00,142.00,VWS V14.01,2013-11-09 12:30:00,
2013-11-09 07:31:00,28.4,25.9,30.29,West,279,0.0,0.0,90,0.00,,,0.00,33.00,VWS V14.01,2013-11-09 12:31:00,
2013-11-09 07:36:00,28.5,26.0,30.29,West,279,0.0,0.0,90,0.00,,,0.00,44.00,VWS V14.01,2013-11-09 12:36:00,
2013-11-09 07:41:00,28.7,26.4,30.29,West,279,0.0,0.0,91,0.00,,,0.00,60.00,VWS V14.01,2013-11-09 12:41:00,
2013-11-09 07:45:00,37.2,28.0,30.30,West,273,1.0,6.0,69,0.00,,,0.00,155.00,VWS V14.01,2013-11-09 12:45:00,
2013-11-09 07:46:00,29.1,26.8,30.30,West,279,0.0,0.0,91,0.00,,,0.00,54.00,VWS V14.01,2013-11-09 12:46:00,
2013-11-09 07:51:00,29.4,26.8,30.30,West,279,0.0,0.0,90,0.00,,,0.00,39.00,VWS V14.01,2013-11-09 12:51:00,
2013-11-09 07:56:00,29.5,27.2,30.30,West,279,0.0,0.0,91,0.00,,,0.00,53.00,VWS V14.01,2013-11-09 12:56:00,
2013-11-09 08:00:00,37.8,28.2,30.29,West,269,0.0,6.0,68,0.00,,,0.00,65.00,VWS V14.01,2013-11-09 13:00:00,
2013-11-09 08:01:00,29.7,27.1,30.29,West,279,0.0,0.0,90,0.00,,,0.00,148.00,VWS V14.01,2013-11-09 13:01:00,
2013-11-09 08:06:00,30.6,28.3,30.29,West,279,0.0,0.0,91,0.00,,,0.00,209.00,VWS V14.01,2013-11-09 13:06:00,
2013-11-09 08:11:00,31.9,28.8,30.29,West,279,0.0,0.0,88,0.00,,,0.00,148.00,VWS V14.01,2013-11-09 13:11:00,
2013-11-09 08:15:00,37.9,28.6,30.29,West,269,0.0,4.0,69,0.00,,,0.00,104.00,VWS V14.01,2013-11-09 13:15:00,
2013-11-09 08:16:00,33.5,28.9,30.29,West,279,0.0,0.0,83,0.00,,,0.00,153.00,VWS V14.01,2013-11-09 13:16:00,
2013-11-09 08:21:00,34.4,28.6,30.29,West,279,0.0,0.0,79,0.00,,,0.00,123.00,VWS V14.01,2013-11-09 13:21:00,
2013-11-09 08:26:00,35.5,29.0,30.29,West,279,0.0,0.0,77,0.00,,,0.00,128.00,VWS V14.01,2013-11-09 13:26:00,
2013-11-09 08:30:00,38.2,28.6,30.29,WSW,257,1.0,5.0,68,0.00,,,0.00,190.00,VWS V14.01,2013-11-09 13:30:00,
2013-11-09 08:31:00,36.3,28.8,30.29,West,279,2.0,2.0,74,0.00,,,0.00,163.00,VWS V14.01,2013-11-09 13:31:00,
2013-11-09 08:36:00,36.8,28.3,30.29,West,270,4.0,6.0,71,0.00,,,0.00,162.00,VWS V14.01,2013-11-09 13:36:00,
2013-11-09 08:41:00,37.0,28.1,30.29,West,273,0.0,6.0,70,0.00,,,0.00,149.00,VWS V14.01,2013-11-09 13:41:00,
2013-11-09 08:45:00,38.8,28.4,30.28,WNW,284,2.0,7.0,66,0.00,,,0.00,204.00,VWS V14.01,2013-11-09 13:45:00,
2013-11-09 08:46:00,37.3,28.1,30.30,West,261,1.0,4.0,69,0.00,,,0.00,160.00,VWS V14.01,2013-11-09 13:46:00,
2013-11-09 08:51:00,37.6,28.4,30.30,WSW,238,2.0,6.0,69,0.00,,,0.00,102.00,VWS V14.01,2013-11-09 13:51:00,
2013-11-09 08:56:00,37.8,28.6,30.30,West,277,2.0,6.0,69,0.00,,,0.00,63.00,VWS V14.01,2013-11-09 13:56:00,
2013-11-09 09:00:00,39.3,28.9,30.28,West,274,4.0,5.0,66,0.00,,,0.00,220.00,VWS V14.01,2013-11-09 14:00:00,
2013-11-09 09:01:00,37.8,28.6,30.29,West,269,0.0,0.0,69,0.00,,,0.00,63.00,VWS V14.01,2013-11-09 14:01:00,
2013-11-09 09:06:00,37.8,28.6,30.29,West,269,0.0,4.0,69,0.00,,,0.00,69.00,VWS V14.01,2013-11-09 14:06:00,
2013-11-09 09:11:00,37.9,28.6,30.29,West,269,0.0,4.0,69,0.00,,,0.00,95.00,VWS V14.01,2013-11-09 14:11:00,
2013-11-09 09:15:00,39.8,29.0,30.28,WSW,243,7.0,9.0,65,0.00,,,0.00,236.00,VWS V14.01,2013-11-09 14:15:00,
2013-11-09 09:16:00,37.9,28.6,30.29,West,269,0.0,0.0,69,0.00,,,0.00,105.00,VWS V14.01,2013-11-09 14:16:00,
2013-11-09 09:21:00,38.0,28.8,30.29,West,269,0.0,1.0,69,0.00,,,0.00,125.00,VWS V14.01,2013-11-09 14:21:00,
2013-11-09 09:26:00,38.2,28.6,30.29,WSW,257,1.0,5.0,68,0.00,,,0.00,174.00,VWS V14.01,2013-11-09 14:26:00,
2013-11-09 09:30:00,40.1,29.3,30.28,SSW,206,7.0,9.0,65,0.00,,,0.00,250.00,VWS V14.01,2013-11-09 14:30:00,
2013-11-09 09:31:00,38.3,28.7,30.29,WSW,257,3.0,4.0,68,0.00,,,0.00,197.00,VWS V14.01,2013-11-09 14:31:00,
2013-11-09 09:36:00,38.6,28.6,30.29,West,270,0.0,5.0,67,0.00,,,0.00,199.00,VWS V14.01,2013-11-09 14:36:00,
2013-11-09 09:41:00,38.8,28.4,30.29,WSW,242,1.0,7.0,66,0.00,,,0.00,200.00,VWS V14.01,2013-11-09 14:41:00,
2013-11-09 09:45:00,41.1,29.1,30.28,West,262,1.0,10.0,62,0.00,,,0.00,265.00,VWS V14.01,2013-11-09 14:45:00,
2013-11-09 09:46:00,38.8,28.4,30.28,WNW,284,0.0,5.0,66,0.00,,,0.00,200.00,VWS V14.01,2013-11-09 14:46:00,
2013-11-09 09:51:00,39.1,28.7,30.28,WNW,284,1.0,5.0,66,0.00,,,0.00,207.00,VWS V14.01,2013-11-09 14:51:00,
2013-11-09 09:56:00,39.5,29.1,30.28,West,259,0.0,5.0,66,0.00,,,0.00,204.00,VWS V14.01,2013-11-09 14:56:00,
2013-11-09 10:00:00,41.8,28.5,30.27,WSW,244,7.0,13.0,59,0.00,,,0.00,327.00,VWS V14.01,2013-11-09 15:00:00,
2013-11-09 10:01:00,39.3,28.9,30.28,West,264,4.0,5.0,66,0.00,,,0.00,218.00,VWS V14.01,2013-11-09 15:01:00,
2013-11-09 10:06:00,39.5,28.7,30.28,WSW,252,5.0,8.0,65,0.00,,,0.00,229.00,VWS V14.01,2013-11-09 15:06:00,
2013-11-09 10:11:00,39.6,29.2,30.28,West,267,0.0,9.0,66,0.00,,,0.00,239.00,VWS V14.01,2013-11-09 15:11:00,
2013-11-09 10:15:00,42.5,27.9,30.26,West,275,12.0,15.0,56,0.00,,,0.00,352.00,VWS V14.01,2013-11-09 15:15:00,
2013-11-09 10:16:00,39.8,28.6,30.28,WSW,250,5.0,7.0,64,0.00,,,0.00,216.00,VWS V14.01,2013-11-09 15:16:00,
2013-11-09 10:21:00,39.6,28.4,30.28,WSW,257,6.0,9.0,64,0.00,,,0.00,225.00,VWS V14.01,2013-11-09 15:21:00,
2013-11-09 10:26:00,39.9,28.3,30.28,WSW,257,2.0,9.0,63,0.00,,,0.00,246.00,VWS V14.01,2013-11-09 15:26:00,
2013-11-09 10:30:00,43.3,28.7,30.25,WNW,297,6.0,12.0,56,0.00,,,0.00,381.00,VWS V14.01,2013-11-09 15:30:00,
2013-11-09 10:31:00,40.1,28.5,30.28,WSW,258,1.0,10.0,63,0.00,,,0.00,262.00,VWS V14.01,2013-11-09 15:31:00,
2013-11-09 10:36:00,40.5,28.9,30.28,West,268,5.0,10.0,63,0.00,,,0.00,279.00,VWS V14.01,2013-11-09 15:36:00,
2013-11-09 10:41:00,40.5,28.9,30.28,SSW,211,4.0,10.0,63,0.00,,,0.00,315.00,VWS V14.01,2013-11-09 15:41:00,
2013-11-09 10:45:00,43.6,27.6,30.24,NW,317,6.0,15.0,53,0.00,,,0.00,322.00,VWS V14.01,2013-11-09 15:45:00,
2013-11-09 10:46:00,41.2,29.2,30.28,WSW,240,1.0,5.0,62,0.00,,,0.00,271.00,VWS V14.01,2013-11-09 15:46:00,
2013-11-09 10:51:00,41.5,29.1,30.28,WNW,287,7.0,8.0,61,0.00,,,0.00,271.00,VWS V14.01,2013-11-09 15:51:00,
2013-11-09 10:56:00,41.5,28.3,30.28,West,273,7.0,13.0,59,0.00,,,0.00,308.00,VWS V14.01,2013-11-09 15:56:00,
2013-11-09 11:00:00,44.8,27.3,30.23,WNW,285,7.0,14.0,50,0.00,,,0.00,443.00,VWS V14.01,2013-11-09 16:00:00,
2013-11-09 11:01:00,41.9,28.6,30.27,WNW,298,6.0,7.0,59,0.00,,,0.00,311.00,VWS V14.01,2013-11-09 16:01:00,
2013-11-09 11:06:00,42.1,28.4,30.27,West,279,10.0,10.0,58,0.00,,,0.00,283.00,VWS V14.01,2013-11-09 16:06:00,
2013-11-09 11:11:00,42.2,28.5,30.27,West,267,7.0,11.0,58,0.00,,,0.00,417.00,VWS V14.01,2013-11-09 16:11:00,
2013-11-09 11:15:00,44.9,24.9,30.22,West,280,8.0,14.0,45,0.00,,,0.00,522.00,VWS V14.01,2013-11-09 16:15:00,
2013-11-09 11:16:00,42.5,28.4,30.26,WSW,254,7.0,12.0,57,0.00,,,0.00,334.00,VWS V14.01,2013-11-09 16:16:00,
2013-11-09 11:21:00,42.6,28.0,30.26,West,273,8.0,12.0,56,0.00,,,0.00,394.00,VWS V14.01,2013-11-09 16:21:00,
2013-11-09 11:26:00,42.9,28.3,30.26,WNW,282,6.0,12.0,56,0.00,,,0.00,436.00,VWS V14.01,2013-11-09 16:26:00,
2013-11-09 11:30:00,45.2,26.2,30.22,WSW,257,8.0,14.0,47,0.00,,,0.00,434.00,VWS V14.01,2013-11-09 16:30:00,
2013-11-09 11:31:00,43.3,28.2,30.25,WSW,253,7.0,9.0,55,0.00,,,0.00,385.00,VWS V14.01,2013-11-09 16:31:00,
2013-11-09 11:36:00,43.3,27.8,30.25,West,281,12.0,15.0,54,0.00,,,0.00,390.00,VWS V14.01,2013-11-09 16:36:00,
2013-11-09 11:41:00,43.5,27.5,30.25,SSW,207,7.0,15.0,53,0.00,,,0.00,341.00,VWS V14.01,2013-11-09 16:41:00,
2013-11-09 11:45:00,46.2,25.5,30.20,WSW,252,8.0,12.0,44,0.00,,,0.00,494.00,VWS V14.01,2013-11-09 16:45:00,
2013-11-09 11:46:00,43.6,27.6,30.24,West,269,9.0,12.0,53,0.00,,,0.00,320.00,VWS V14.01,2013-11-09 16:46:00,
2013-11-09 11:51:00,44.2,28.2,30.24,SW,234,7.0,12.0,53,0.00,,,0.00,359.00,VWS V14.01,2013-11-09 16:51:00,
2013-11-09 11:56:00,44.1,27.1,30.24,WNW,288,6.0,14.0,51,0.00,,,0.00,555.00,VWS V14.01,2013-11-09 16:56:00,
2013-11-09 12:00:00,46.0,25.9,30.20,SSW,200,10.0,15.0,45,0.00,,,0.00,513.00,VWS V14.01,2013-11-09 17:00:00,
2013-11-09 12:01:00,44.8,26.8,30.23,West,262,8.0,11.0,49,0.00,,,0.00,478.00,VWS V14.01,2013-11-09 17:01:00,
2013-11-09 12:06:00,44.9,26.4,30.23,West,271,4.0,11.0,48,0.00,,,0.00,450.00,VWS V14.01,2013-11-09 17:06:00,
2013-11-09 12:11:00,45.4,26.4,30.23,WNW,283,8.0,11.0,47,0.00,,,0.00,279.00,VWS V14.01,2013-11-09 17:11:00,
2013-11-09 12:15:00,46.1,25.4,30.18,WSW,240,6.0,16.0,44,0.00,,,0.00,508.00,VWS V14.01,2013-11-09 17:15:00,
2013-11-09 12:16:00,44.9,24.9,30.22,West,275,6.0,11.0,45,0.00,,,0.00,508.00,VWS V14.01,2013-11-09 17:16:00,
2013-11-09 12:21:00,45.2,26.2,30.22,West,269,6.0,12.0,47,0.00,,,0.00,269.00,VWS V14.01,2013-11-09 17:21:00,
2013-11-09 12:26:00,45.2,25.7,30.22,West,279,9.0,14.0,46,0.00,,,0.00,394.00,VWS V14.01,2013-11-09 17:26:00,
2013-11-09 12:30:00,47.3,26.5,30.18,SW,224,4.0,13.0,44,0.00,,,0.00,480.00,VWS V14.01,2013-11-09 17:30:00,
2013-11-09 12:31:00,45.5,26.5,30.22,West,273,7.0,8.0,47,0.00,,,0.00,374.00,VWS V14.01,2013-11-09 17:31:00,
2013-11-09 12:36:00,45.5,25.9,30.22,WSW,247,0.0,12.0,46,0.00,,,0.00,541.00,VWS V14.01,2013-11-09 17:36:00,
2013-11-09 12:41:00,45.8,25.7,30.22,West,259,5.0,12.0,45,0.00,,,0.00,534.00,VWS V14.01,2013-11-09 17:41:00,
2013-11-09 12:45:00,47.0,26.8,30.17,West,259,6.0,13.0,45,0.00,,,0.00,385.00,VWS V14.01,2013-11-09 17:45:00,
2013-11-09 12:46:00,46.4,26.2,30.20,West,277,10.0,10.0,45,0.00,,,0.00,515.00,VWS V14.01,2013-11-09 17:46:00,
2013-11-09 12:51:00,46.2,25.5,30.20,North,351,2.0,12.0,44,0.00,,,0.00,548.00,VWS V14.01,2013-11-09 17:51:00,
2013-11-09 12:56:00,46.4,25.7,30.20,West,279,10.0,13.0,44,0.00,,,0.00,513.00,VWS V14.01,2013-11-09 17:56:00,
2013-11-09 13:00:00,47.6,26.2,30.16,NNW,327,4.0,10.0,43,0.00,,,0.00,422.00,VWS V14.01,2013-11-09 18:00:00,
2013-11-09 13:01:00,46.1,26.5,30.20,WSW,238,9.0,10.0,46,0.00,,,0.00,517.00,VWS V14.01,2013-11-09 18:01:00,
2013-11-09 13:06:00,46.1,25.4,30.20,SSW,200,9.0,12.0,44,0.00,,,0.00,513.00,VWS V14.01,2013-11-09 18:06:00,
2013-11-09 13:11:00,45.8,26.7,30.20,West,280,6.0,16.0,47,0.00,,,0.00,510.00,VWS V14.01,2013-11-09 18:11:00,
2013-11-09 13:15:00,47.7,26.3,30.14,West,266,0.0,9.0,43,0.00,,,0.00,369.00,VWS V14.01,2013-11-09 18:15:00,
2013-11-09 13:16:00,46.4,25.7,30.18,WSW,255,8.0,8.0,44,0.00,,,0.00,503.00,VWS V14.01,2013-11-09 18:16:00,
2013-11-09 13:21:00,46.7,26.0,30.18,West,277,5.0,13.0,44,0.00,,,0.00,476.00,VWS V14.01,2013-11-09 18:21:00,
2013-11-09 13:26:00,47.4,26.0,30.18,WSW,242,10.0,13.0,43,0.00,,,0.00,487.00,VWS V14.01,2013-11-09 18:26:00,
2013-11-09 13:30:00,48.2,26.2,30.14,West,281,1.0,11.0,42,0.00,,,0.00,183.00,VWS V14.01,2013-11-09 18:30:00,
2013-11-09 13:31:00,47.4,26.6,30.18,West,267,10.0,13.0,44,0.00,,,0.00,480.00,VWS V14.01,2013-11-09 18:31:00,
2013-11-09 13:36:00,47.0,26.2,30.18,SW,233,2.0,13.0,44,0.00,,,0.00,496.00,VWS V14.01,2013-11-09 18:36:00,
2013-11-09 13:41:00,46.8,26.6,30.18,NW,316,5.0,13.0,45,0.00,,,0.00,195.00,VWS V14.01,2013-11-09 18:41:00,
2013-11-09 13:45:00,49.2,25.3,30.13,SW,214,8.0,13.0,39,0.00,,,0.00,142.00,VWS V14.01,2013-11-09 18:45:00,
2013-11-09 13:46:00,47.0,26.2,30.17,West,267,5.0,10.0,44,0.00,,,0.00,369.00,VWS V14.01,2013-11-09 18:46:00,
2013-11-09 13:51:00,47.1,26.3,30.17,West,265,7.0,10.0,44,0.00,,,0.00,311.00,VWS V14.01,2013-11-09 18:51:00,
2013-11-09 13:56:00,47.1,25.8,30.17,SW,232,7.0,10.0,43,0.00,,,0.00,431.00,VWS V14.01,2013-11-09 18:56:00,
2013-11-09 14:00:00,47.6,24.5,30.13,West,272,7.0,14.0,40,0.00,,,0.00,88.00,VWS V14.01,2013-11-09 19:00:00,
2013-11-09 14:01:00,48.2,27.3,30.16,West,267,9.0,9.0,44,0.00,,,0.00,418.00,VWS V14.01,2013-11-09 19:01:00,
2013-11-09 14:06:00,47.9,26.5,30.16,West,270,7.0,9.0,43,0.00,,,0.00,404.00,VWS V14.01,2013-11-09 19:06:00,
2013-11-09 14:11:00,47.9,26.5,30.16,West,267,5.0,9.0,43,0.00,,,0.00,364.00,VWS V14.01,2013-11-09 19:11:00,
2013-11-09 14:15:00,47.0,24.5,30.13,West,275,1.0,11.0,41,0.00,,,0.00,70.00,VWS V14.01,2013-11-09 19:15:00,
2013-11-09 14:16:00,48.0,26.6,30.14,West,267,0.0,0.0,43,0.00,,,0.00,341.00,VWS V14.01,2013-11-09 19:16:00,
2013-11-09 14:21:00,48.5,27.0,30.14,WSW,240,5.0,8.0,43,0.00,,,0.00,237.00,VWS V14.01,2013-11-09 19:21:00,
2013-11-09 14:26:00,48.2,26.2,30.14,West,265,5.0,11.0,42,0.00,,,0.00,329.00,VWS V14.01,2013-11-09 19:26:00,
2013-11-09 14:30:00,46.8,24.4,30.12,WSW,257,2.0,10.0,41,0.00,,,0.00,72.00,VWS V14.01,2013-11-09 19:30:00,
2013-11-09 14:31:00,48.3,26.3,30.14,West,281,0.0,1.0,42,0.00,,,0.00,183.00,VWS V14.01,2013-11-09 19:31:00,
2013-11-09 14:36:00,48.9,26.2,30.14,SSW,192,5.0,8.0,41,0.00,,,0.00,422.00,VWS V14.01,2013-11-09 19:36:00,
2013-11-09 14:41:00,49.4,26.7,30.14,SW,230,6.0,10.0,41,0.00,,,0.00,341.00,VWS V14.01,2013-11-09 19:41:00,
2013-11-09 14:45:00,46.7,24.8,30.12,West,275,7.0,10.0,42,0.00,,,0.00,44.00,VWS V14.01,2013-11-09 19:45:00,
2013-11-09 14:46:00,48.9,25.0,30.13,WNW,300,5.0,9.0,39,0.00,,,0.00,125.00,VWS V14.01,2013-11-09 19:46:00,
2013-11-09 14:51:00,48.2,25.0,30.13,West,275,9.0,12.0,40,0.00,,,0.00,93.00,VWS V14.01,2013-11-09 19:51:00,
2013-11-09 14:55:00,47.7,24.6,30.13,West,277,4.0,14.0,40,0.00,,,0.00,91.00,VWS V14.01,2013-11-09 19:55:00,
2013-11-09 15:00:00,47.4,24.9,30.13,West,275,10.0,10.0,41,0.00,,,0.00,88.00,VWS V14.01,2013-11-09 20:00:00,
2013-11-09 15:05:00,47.3,24.2,30.13,WNW,284,5.0,11.0,40,0.00,,,0.00,81.00,VWS V14.01,2013-11-09 20:05:00,
2013-11-09 15:10:00,47.1,24.0,30.13,West,277,9.0,11.0,40,0.00,,,0.00,97.00,VWS V14.01,2013-11-09 20:10:00,
2013-11-09 15:15:00,47.0,24.5,30.13,West,275,0.0,2.0,41,0.00,,,0.00,70.00,VWS V14.01,2013-11-09 20:15:00,
2013-11-09 15:20:00,47.0,24.5,30.13,SW,227,6.0,10.0,41,0.00,,,0.00,79.00,VWS V14.01,2013-11-09 20:20:00,
2013-11-09 15:25:00,47.0,24.0,30.13,West,260,5.0,10.0,40,0.00,,,0.00,77.00,VWS V14.01,2013-11-09 20:25:00,
2013-11-09 15:30:00,46.8,23.8,30.12,West,261,4.0,7.0,40,0.00,,,0.00,69.00,VWS V14.01,2013-11-09 20:30:00,
2013-11-09 15:35:00,46.8,24.4,30.12,WSW,248,0.0,9.0,41,0.00,,,0.00,62.00,VWS V14.01,2013-11-09 20:35:00,
2013-11-09 15:40:00,46.7,24.3,30.12,West,276,6.0,10.0,41,0.00,,,0.00,51.00,VWS V14.01,2013-11-09 20:40:00,
2013-11-09 15:45:00,46.7,25.4,30.12,West,270,5.0,7.0,43,0.00,,,0.00,44.00,VWS V14.01,2013-11-09 20:45:00,
2013-11-09 15:50:00,46.5,25.2,30.12,West,271,7.0,9.0,43,0.00,,,0.00,42.00,VWS V14.01,2013-11-09 20:50:00,
2013-11-09 15:55:00,46.4,25.7,30.12,WSW,242,4.0,9.0,44,0.00,,,0.00,30.00,VWS V14.01,2013-11-09 20:55:00,
2013-11-09 16:00:00,46.2,25.5,30.12,West,277,4.0,7.0,44,0.00,,,0.00,28.00,VWS V14.01,2013-11-09 21:00:00,
2013-11-09 16:05:00,46.2,25.5,30.12,West,276,0.0,7.0,44,0.00,,,0.00,23.00,VWS V14.01,2013-11-09 21:05:00,
2013-11-09 16:10:00,46.1,26.0,30.12,West,267,0.0,7.0,45,0.00,,,0.00,25.00,VWS V14.01,2013-11-09 21:10:00,
2013-11-09 16:15:00,46.1,25.4,30.12,WSW,238,6.0,10.0,44,0.00,,,0.00,19.00,VWS V14.01,2013-11-09 21:15:00,
2013-11-09 16:20:00,46.0,25.3,30.12,WNW,295,5.0,10.0,44,0.00,,,0.00,16.00,VWS V14.01,2013-11-09 21:20:00,
2013-11-09 16:25:00,46.0,25.3,30.12,WSW,257,6.0,11.0,44,0.00,,,0.00,12.00,VWS V14.01,2013-11-09 21:25:00,
2013-11-09 16:30:00,45.8,25.1,30.11,West,277,4.0,7.0,44,0.00,,,0.00,11.00,VWS V14.01,2013-11-09 21:30:00,
2013-11-09 16:35:00,45.8,25.1,30.11,West,280,5.0,13.0,44,0.00,,,0.00,7.00,VWS V14.01,2013-11-09 21:35:00,
2013-11-09 16:40:00,45.8,25.1,30.11,WNW,290,7.0,13.0,44,0.00,,,0.00,0.00,VWS V14.01,2013-11-09 21:40:00,
2013-11-09 16:45:00,45.7,25.6,30.11,WSW,257,3.0,6.0,45,0.00,,,0.00,0.00,VWS V14.01,2013-11-09 21:45:00,
2013-11-09 16:50:00,45.7,25.6,30.11,West,278,0.0,9.0,45,0.00,,,0.00,0.00,VWS V14.01,2013-11-09 21:50:00,
2013-11-09 16:55:00,45.5,25.4,30.11,WNW,290,5.0,11.0,45,0.00,,,0.00,0.00,VWS V14.01,2013-11-09 21:55:00,
2013-11-09 17:00:00,45.5,25.4,30.10,West,269,6.0,8.0,45,0.00,,,0.00,0.00,VWS V14.01,2013-11-09 22:00:00,
2013-11-09 17:05:00,45.5,25.4,30.10,West,267,6.0,12.0,45,0.00,,,0.00,0.00,VWS V14.01,2013-11-09 22:05:00,
2013-11-09 17:10:00,45.5,25.4,30.10,WNW,294,5.0,12.0,45,0.00,,,0.00,0.00,VWS V14.01,2013-11-09 22:10:00,
2013-11-09 17:15:00,45.4,25.3,30.10,WNW,295,5.0,6.0,45,0.00,,,0.00,0.00,VWS V14.01,2013-11-09 22:15:00,
2013-11-09 17:20:00,45.4,25.9,30.10,West,275,0.0,10.0,46,0.00,,,0.00,0.00,VWS V14.01,2013-11-09 22:20:00,
2013-11-09 17:25:00,45.4,25.3,30.10,WNW,284,6.0,10.0,45,0.00,,,0.00,0.00,VWS V14.01,2013-11-09 22:25:00,
2013-11-09 17:30:00,45.4,25.9,30.09,WNW,285,4.0,7.0,46,0.00,,,0.00,0.00,VWS V14.01,2013-11-09 22:30:00,
2013-11-09 17:35:00,45.2,25.7,30.09,WNW,282,7.0,9.0,46,0.00,,,0.00,0.00,VWS V14.01,2013-11-09 22:35:00,
2013-11-09 17:40:00,45.2,25.7,30.09,West,272,2.0,9.0,46,0.00,,,0.00,0.00,VWS V14.01,2013-11-09 22:40:00,
2013-11-09 17:45:00,45.2,25.7,30.10,West,271,0.0,5.0,46,0.00,,,0.00,0.00,VWS V14.01,2013-11-09 22:45:00,
2013-11-09 17:50:00,45.1,25.6,30.10,West,271,4.0,7.0,46,0.00,,,0.00,0.00,VWS V14.01,2013-11-09 22:50:00,
2013-11-09 17:55:00,45.1,25.6,30.10,NW,309,6.0,7.0,46,0.00,,,0.00,0.00,VWS V14.01,2013-11-09 22:55:00,
2013-11-09 18:00:00,45.1,25.6,30.10,WNW,285,4.0,4.0,46,0.00,,,0.00,0.00,VWS V14.01,2013-11-09 23:00:00,
2013-11-09 18:05:00,44.9,25.4,30.10,West,274,7.0,9.0,46,0.00,,,0.00,0.00,VWS V14.01,2013-11-09 23:05:00,
2013-11-09 18:10:00,44.9,25.9,30.10,WNW,283,3.0,9.0,47,0.00,,,0.00,0.00,VWS V14.01,2013-11-09 23:10:00,
2013-11-09 18:15:00,44.9,25.9,30.10,West,277,0.0,0.0,47,0.00,,,0.00,0.00,VWS V14.01,2013-11-09 23:15:00,
2013-11-09 18:20:00,44.8,25.8,30.10,WSW,257,7.0,7.0,47,0.00,,,0.00,0.00,VWS V14.01,2013-11-09 23:20:00,
2013-11-09 18:25:00,44.8,26.3,30.10,WNW,289,0.0,7.0,48,0.00,,,0.00,0.00,VWS V14.01,2013-11-09 23:25:00,
2013-11-09 18:30:00,44.8,26.3,30.10,NNW,339,0.0,5.0,48,0.00,,,0.00,0.00,VWS V14.01,2013-11-09 23:30:00,
2013-11-09 18:35:00,44.6,26.6,30.10,NW,308,0.0,7.0,49,0.00,,,0.00,0.00,VWS V14.01,2013-11-09 23:35:00,
2013-11-09 18:40:00,44.6,26.6,30.10,NW,306,4.0,8.0,49,0.00,,,0.00,0.00,VWS V14.01,2013-11-09 23:40:00,
2013-11-09 18:45:00,44.6,26.6,30.09,West,265,5.0,5.0,49,0.00,,,0.00,0.00,VWS V14.01,2013-11-09 23:45:00,
2013-11-09 18:50:00,44.5,26.5,30.09,NNW,332,4.0,8.0,49,0.00,,,0.00,0.00,VWS V14.01,2013-11-09 23:50:00,
2013-11-09 18:55:00,44.5,26.5,30.09,NNW,344,0.0,8.0,49,0.00,,,0.00,0.00,VWS V14.01,2013-11-09 23:55:00,
2013-11-09 19:00:00,44.6,27.1,30.08,NNW,348,0.0,3.0,50,0.00,,,0.00,0.00,VWS V14.01,2013-11-10 00:00:00,
2013-11-09 19:05:00,44.5,27.5,30.08,WNW,282,5.0,5.0,51,0.00,,,0.00,0.00,VWS V14.01,2013-11-10 00:05:00,
2013-11-09 19:10:00,44.5,27.5,30.08,West,277,8.0,10.0,51,0.00,,,0.00,0.00,VWS V14.01,2013-11-10 00:10:00,
2013-11-09 19:15:00,44.5,27.5,30.09,WNW,287,6.0,12.0,51,0.00,,,0.00,0.00,VWS V14.01,2013-11-10 00:15:00,
2013-11-09 19:20:00,44.5,27.5,30.09,West,271,0.0,12.0,51,0.00,,,0.00,0.00,VWS V14.01,2013-11-10 00:20:00,
2013-11-09 19:25:00,44.3,27.3,30.09,West,259,1.0,12.0,51,0.00,,,0.00,0.00,VWS V14.01,2013-11-10 00:25:00,
2013-11-09 19:30:00,44.3,27.3,30.10,West,267,4.0,7.0,51,0.00,,,0.00,0.00,VWS V14.01,2013-11-10 00:30:00,
2013-11-09 19:35:00,44.5,27.5,30.10,WNW,300,0.0,7.0,51,0.00,,,0.00,0.00,VWS V14.01,2013-11-10 00:35:00,
2013-11-09 19:40:00,44.5,27.5,30.10,West,279,3.0,7.0,51,0.00,,,0.00,0.00,VWS V14.01,2013-11-10 00:40:00,
2013-11-09 19:45:00,44.6,27.6,30.09,WSW,238,5.0,7.0,51,0.00,,,0.00,0.00,VWS V14.01,2013-11-10 00:45:00,
2013-11-09 19:50:00,44.9,27.9,30.09,West,275,8.0,12.0,51,0.00,,,0.00,0.00,VWS V14.01,2013-11-10 00:50:00,
2013-11-09 19:55:00,44.9,27.9,30.09,West,275,5.0,12.0,51,0.00,,,0.00,0.00,VWS V14.01,2013-11-10 00:55:00,
2013-11-09 20:00:00,44.9,27.9,30.09,West,273,0.0,3.0,51,0.00,,,0.00,0.00,VWS V14.01,2013-11-10 01:00:00,
2013-11-09 20:05:00,44.9,27.9,30.09,West,265,3.0,8.0,51,0.00,,,0.00,0.00,VWS V14.01,2013-11-10 01:05:00,
2013-11-09 20:10:00,44.9,27.9,30.09,West,269,4.0,14.0,51,0.00,,,0.00,0.00,VWS V14.01,2013-11-10 01:10:00,
2013-11-09 20:15:00,44.9,27.9,30.08,SW,229,8.0,10.0,51,0.00,,,0.00,0.00,VWS V14.01,2013-11-10 01:15:00,
2013-11-09 20:20:00,44.9,27.9,30.08,WSW,244,2.0,10.0,51,0.00,,,0.00,0.00,VWS V14.01,2013-11-10 01:20:00,
2013-11-09 20:25:00,44.9,27.9,30.08,WNW,282,6.0,10.0,51,0.00,,,0.00,0.00,VWS V14.01,2013-11-10 01:25:00,
2013-11-09 20:30:00,44.8,27.8,30.08,West,259,5.0,6.0,51,0.00,,,0.00,0.00,VWS V14.01,2013-11-10 01:30:00,
2013-11-09 20:35:00,44.6,28.1,30.08,West,274,7.0,10.0,52,0.00,,,0.00,0.00,VWS V14.01,2013-11-10 01:35:00,
2013-11-09 20:40:00,44.5,28.0,30.08,SSW,205,4.0,12.0,52,0.00,,,0.00,0.00,VWS V14.01,2013-11-10 01:40:00,
2013-11-09 20:45:00,44.5,28.5,30.07,West,260,6.0,9.0,53,0.00,,,0.00,0.00,VWS V14.01,2013-11-10 01:45:00,
2013-11-09 20:50:00,44.3,28.3,30.07,WSW,255,7.0,12.0,53,0.00,,,0.00,0.00,VWS V14.01,2013-11-10 01:50:00,
2013-11-09 20:55:00,44.3,28.3,30.07,West,269,0.0,12.0,53,0.00,,,0.00,0.00,VWS V14.01,2013-11-10 01:55:00,
2013-11-09 21:00:00,44.2,28.6,30.07,SSW,193,8.0,8.0,54,0.00,,,0.00,0.00,VWS V14.01,2013-11-10 02:00:00,
2013-11-09 21:05:00,44.2,28.6,30.07,WSW,247,6.0,11.0,54,0.00,,,0.00,0.00,VWS V14.01,2013-11-10 02:05:00,
2013-11-09 21:10:00,44.2,28.6,30.07,WSW,250,4.0,11.0,54,0.00,,,0.00,0.00,VWS V14.01,2013-11-10 02:10:00,
2013-11-09 21:15:00,44.2,29.1,30.06,West,273,6.0,9.0,55,0.00,,,0.00,0.00,VWS V14.01,2013-11-10 02:15:00,
2013-11-09 21:20:00,44.1,29.0,30.06,WNW,284,2.0,9.0,55,0.00,,,0.00,0.00,VWS V14.01,2013-11-10 02:20:00,
2013-11-09 21:25:00,44.1,29.0,30.06,West,272,4.0,9.0,55,0.00,,,0.00,0.00,VWS V14.01,2013-11-10 02:25:00,
2013-11-09 21:30:00,44.1,29.4,30.05,WSW,246,0.0,7.0,56,0.00,,,0.00,0.00,VWS V14.01,2013-11-10 02:30:00,
2013-11-09 21:35:00,43.9,29.2,30.05,WNW,284,0.0,7.0,56,0.00,,,0.00,0.00,VWS V14.01,2013-11-10 02:35:00,
2013-11-09 21:40:00,44.1,29.4,30.05,West,263,0.0,11.0,56,0.00,,,0.00,0.00,VWS V14.01,2013-11-10 02:40:00,
2013-11-09 21:45:00,44.1,29.4,30.05,West,269,2.0,5.0,56,0.00,,,0.00,0.00,VWS V14.01,2013-11-10 02:45:00,
2013-11-09 21:50:00,44.1,29.4,30.05,WSW,253,3.0,8.0,56,0.00,,,0.00,0.00,VWS V14.01,2013-11-10 02:50:00,
2013-11-09 21:55:00,44.1,29.9,30.05,West,269,1.0,10.0,57,0.00,,,0.00,0.00,VWS V14.01,2013-11-10 02:55:00,
2013-11-09 22:00:00,44.1,29.9,30.04,WSW,247,0.0,7.0,57,0.00,,,0.00,0.00,VWS V14.01,2013-11-10 03:00:00,
2013-11-09 22:05:00,44.1,29.9,30.04,SW,236,4.0,10.0,57,0.00,,,0.00,0.00,VWS V14.01,2013-11-10 03:05:00,
2013-11-09 22:10:00,44.1,29.9,30.04,SW,236,9.0,10.0,57,0.00,,,0.00,0.00,VWS V14.01,2013-11-10 03:10:00,
2013-11-09 22:15:00,44.1,30.3,30.04,WSW,244,0.0,5.0,58,0.00,,,0.00,0.00,VWS V14.01,2013-11-10 03:15:00,
2013-11-09 22:20:00,44.1,30.3,30.04,SSW,208,6.0,10.0,58,0.00,,,0.00,0.00,VWS V14.01,2013-11-10 03:20:00,
2013-11-09 22:25:00,44.1,30.3,30.04,SSW,211,8.0,10.0,58,0.00,,,0.00,0.00,VWS V14.01,2013-11-10 03:25:00,
2013-11-09 22:30:00,44.1,30.3,30.02,SW,227,0.0,6.0,58,0.00,,,0.00,0.00,VWS V14.01,2013-11-10 03:30:00,
2013-11-09 22:35:00,44.2,30.8,30.02,WNW,296,0.0,12.0,59,0.00,,,0.00,0.00,VWS V14.01,2013-11-10 03:35:00,
2013-11-09 22:40:00,44.2,30.8,30.02,West,260,4.0,12.0,59,0.00,,,0.00,0.00,VWS V14.01,2013-11-10 03:40:00,
2013-11-09 22:45:00,44.1,30.7,30.02,WSW,238,0.0,8.0,59,0.00,,,0.00,0.00,VWS V14.01,2013-11-10 03:45:00,
2013-11-09 22:50:00,43.9,30.5,30.02,WSW,240,5.0,13.0,59,0.00,,,0.00,0.00,VWS V14.01,2013-11-10 03:50:00,
2013-11-09 22:55:00,43.8,30.4,30.02,SW,232,0.0,13.0,59,0.00,,,0.00,0.00,VWS V14.01,2013-11-10 03:55:00,
2013-11-09 23:00:00,43.6,30.2,30.01,South,190,10.0,11.0,59,0.00,,,0.00,0.00,VWS V14.01,2013-11-10 04:00:00,
2013-11-09 23:05:00,43.6,30.6,30.01,SSW,201,7.0,11.0,60,0.00,,,0.00,0.00,VWS V14.01,2013-11-10 04:05:00,
2013-11-09 23:10:00,43.5,30.5,30.01,SW,229,11.0,13.0,60,0.00,,,0.00,0.00,VWS V14.01,2013-11-10 04:10:00,
2013-11-09 23:15:00,43.5,31.0,30.01,SSW,211,0.0,6.0,61,0.00,,,0.00,0.00,VWS V14.01,2013-11-10 04:15:00,
2013-11-09 23:20:00,43.6,31.0,30.01,WSW,257,0.0,8.0,61,0.00,,,0.00,0.00,VWS V14.01,2013-11-10 04:20:00,
2013-11-09 23:25:00,43.6,31.0,30.01,WSW,254,0.0,8.0,61,0.00,,,0.00,0.00,VWS V14.01,2013-11-10 04:25:00,
2013-11-09 23:30:00,43.6,31.0,30.00,SW,232,0.0,0.0,61,0.00,,,0.00,0.00,VWS V14.01,2013-11-10 04:30:00,
2013-11-09 23:35:00,43.8,31.6,30.00,South,181,1.0,7.0,62,0.00,,,0.00,0.00,VWS V14.01,2013-11-10 04:35:00,
2013-11-09 23:40:00,44.1,31.9,30.00,WSW,251,6.0,8.0,62,0.00,,,0.00,0.00,VWS V14.01,2013-11-10 04:40:00,
2013-11-09 23:45:00,44.3,31.7,29.99,WSW,249,0.0,4.0,61,0.00,,,0.00,0.00,VWS V14.01,2013-11-10 04:45:00,
2013-11-09 23:50:00,44.5,31.9,29.99,SSW,202,0.0,11.0,61,0.00,,,0.00,0.00,VWS V14.01,2013-11-10 04:50:00,
2013-11-09 23:55:00,44.5,31.9,29.99,South,190,7.0,11.0,61,0.00,,,0.00,0.00,VWS V14.01,2013-11-10 04:55:00,